Time;durP1;ratioP1;P1;durP2;ratioP2;P2;SDS_P1;SDS_P2;PMS_P1;PMS_P2;Temp;Humidity;BMP_temperature;BMP_pressure;BME280_temperature;BME280_humidity;BME280_pressure;Samples;Min_cycle;Max_cycle;Signal;HPM_P1;HPM_P2
2023/01/02 15:38:18;;;;;;;;;;;;;;;14.21;51.50;99951.41;5385819;22;19943;-87
2023/01/02 15:40:44;;;;;;;;;;;;;;;14.12;50.89;99960.78;5041097;28;19968;-83
2023/01/02 15:45:56;;;;;;;;;;;;;;;13.93;50.25;99962.09;5038782;28;20299;-87
2023/01/02 15:48:22;;;;;;;;;;;;;;;13.85;49.99;99956.56;5021712;28;19921;-88
2023/01/02 15:50:51;;;;;;;;;;;;;;;13.79;49.87;99962.25;5038080;28;19916;-88
2023/01/02 15:53:22;;;;;;;;;;;;;;;13.72;49.88;99963.59;5037887;28;20043;-88
2023/01/02 15:55:48;;;;;;;;;;;;;;;13.63;49.54;99965.09;5036569;28;20346;-86
2023/01/02 15:58:13;;;;;;;;;;;;;;;13.56;49.57;99959.41;5037850;28;19917;-85
2023/01/02 16:00:38;;;;;;;;;;;;;;;13.51;49.54;99965.94;5034691;28;19920;-86
2023/01/02 16:03:04;;;;;;;;;;;;;;;13.45;49.50;99964.56;5054102;28;20003;-87
2023/01/02 16:05:29;;;;;;;;;;;;;;;13.39;49.58;99960.59;5035658;28;19917;-79
2023/01/02 16:07:55;;;;;;;;;;;;;;;13.36;49.75;99959.94;5036732;28;19916;-85
2023/01/02 16:10:29;;;;;;;;;;;;;;;13.31;49.32;99959.41;5072618;28;19944;-87
2023/01/02 16:12:55;;;;;;;;;;;;;;;13.27;49.47;99957.94;5081975;28;20284;-90
2023/01/02 16:15:22;;;;;;;;;;;;;;;13.21;49.62;99952.16;5062186;28;20403;-90
2023/01/02 16:17:48;;;;;;;;;;;;;;;13.16;49.80;99959.50;5057295;28;19917;-94
2023/01/02 16:20:13;;;;;;;;;;;;;;;13.13;49.72;99954.47;5014420;28;19917;-89
2023/01/02 16:22:42;;;;;;;;;;;;;;;13.10;49.97;99956.47;5039667;28;19970;-82
2023/01/02 16:25:15;;;;;;;;;;;;;;;13.07;49.91;99959.28;5015524;28;19918;-76
2023/01/02 16:27:50;;;;;;;;;;;;;;;13.02;49.99;99957.81;5032739;28;19917;-77
2023/01/02 16:30:24;;;;;;;;;;;;;;;12.99;49.96;99959.78;5044875;28;19921;-78
2023/01/02 16:32:49;;;;;;;;;;;;;;;13.31;62.28;99965.47;5038212;28;19916;-80
2023/01/02 16:35:19;;;;;;;;;;;;;;;13.31;59.94;99964.66;5035534;28;20351;-82
2023/01/02 16:37:49;;;;;;;;;;;;;;;13.26;57.07;99958.88;5034896;28;20002;-75
2023/01/02 16:40:24;;;;;;;;;;;;;;;13.16;55.82;99962.13;5034805;28;19925;-75
2023/01/02 16:42:54;;;;;;;;;;;;;;;13.08;55.02;99964.44;5052536;28;19920;-75
2023/01/02 16:45:20;;;;;;;;;;;;;;;12.98;54.06;99969.44;5019020;28;19921;-73
2023/01/02 16:47:46;;;;;;;;;;;;;;;12.91;53.76;99967.34;5034191;28;20003;-71
2023/01/02 16:50:16;;;;;;;;;;;;;;;12.82;53.39;99966.16;5034603;28;20394;-71
2023/01/02 16:52:41;;;;;;;;;;;;;;;12.75;52.69;99963.09;5017900;28;19916;-71
2023/01/02 16:55:11;;;;;;;;;;;;;;;12.69;52.56;99967.91;5034754;28;19916;-71
2023/01/02 16:57:36;;;;;;;;;;;;;;;12.63;52.25;99966.50;5017744;28;19924;-72
2023/01/02 17:00:02;;;;;;;;;;;;;;;12.59;52.03;99971.13;5029424;28;20302;-71
2023/01/02 17:02:27;;;;;;;;;;;;;;;12.53;52.06;99978.53;5042865;28;19913;-82
2023/01/02 17:04:53;;;;;;;;;;;;;;;12.49;51.77;99980.50;5032107;28;19959;-80
2023/01/02 17:07:18;;;;;;;;;;;;;;;12.44;51.70;99980.78;5054486;28;19969;-80
2023/01/02 17:09:43;;;;;;;;;;;;;;;12.41;52.02;99980.16;5018651;28;19921;-83
2023/01/02 17:12:09;;;;;;;;;;;;;;;12.38;51.53;99980.34;5017670;28;19913;-81
2023/01/02 17:14:34;;;;;;;;;;;;;;;12.34;51.51;99982.34;5017276;28;19923;-81
2023/01/02 17:17:00;;;;;;;;;;;;;;;12.31;51.75;99982.53;5033564;28;20374;-79
2023/01/02 17:19:25;;;;;;;;;;;;;;;12.27;51.68;99981.91;5033032;28;20399;-83
2023/01/02 17:21:50;;;;;;;;;;;;;;;12.23;51.72;99980.41;5029171;28;19927;-81
2023/01/02 17:24:16;;;;;;;;;;;;;;;12.21;51.53;99987.50;5026092;28;19920;-83
2023/01/02 17:26:41;;;;;;;;;;;;;;;12.18;51.56;99979.03;5034362;28;20392;-81
2023/01/02 17:29:06;;;;;;;;;;;;;;;12.16;51.60;99981.75;5014153;28;19924;-83
2023/01/02 17:31:31;;;;;;;;;;;;;;;12.13;51.69;99979.31;5014692;28;19913;-79
2023/01/02 17:34:00;;;;;;;;;;;;;;;12.11;51.82;99984.66;4997522;28;19951;-83
2023/01/02 17:36:26;;;;;;;;;;;;;;;12.10;51.78;99982.94;5014681;28;19999;-79
2023/01/02 17:38:51;;;;;;;;;;;;;;;12.08;51.41;99989.22;4997044;28;20388;-82
2023/01/02 17:41:16;;;;;;;;;;;;;;;12.06;51.67;99983.22;5014303;28;20047;-79
2023/01/02 17:43:41;;;;;;;;;;;;;;;12.29;62.88;99981.78;4997684;28;20011;-76
2023/01/02 17:46:07;;;;;;;;;;;;;;;12.31;59.00;99993.00;5040753;28;19923;-79
2023/01/02 17:48:32;;;;;;;;;;;;;;;12.29;57.57;99981.78;5013411;28;20312;-82
2023/01/02 17:50:57;;;;;;;;;;;;;;;12.25;56.14;99994.22;5030425;28;19921;-78
2023/01/02 17:53:23;;;;;;;;;;;;;;;12.20;55.46;99988.44;5032025;28;19925;-77
2023/01/02 17:55:49;;;;;;;;;;;;;;;12.18;55.53;99986.88;5013652;28;20344;-77
2023/01/02 17:58:14;;;;;;;;;;;;;;;12.13;54.59;99990.63;5030351;28;19920;-75
2023/01/02 18:00:41;;;;;;;;;;;;;;;12.08;54.25;99987.44;5032659;28;20346;-77
2023/01/02 18:03:06;;;;;;;;;;;;;;;12.06;53.71;99985.84;5015956;28;19921;-76
2023/01/02 18:05:33;;;;;;;;;;;;;;;12.01;53.53;99994.00;5016965;28;20363;-80
2023/01/02 18:07:59;;;;;;;;;;;;;;;11.97;53.41;99987.28;5017032;28;19964;-80
2023/01/02 18:10:24;;;;;;;;;;;;;;;11.93;53.14;99986.59;5016694;28;19956;-76
2023/01/02 18:12:49;;;;;;;;;;;;;;;11.90;53.19;99984.16;5016025;28;19997;-79
2023/01/02 18:15:14;;;;;;;;;;;;;;;11.87;53.03;99981.72;5016767;28;19994;-78
2023/01/02 18:17:40;;;;;;;;;;;;;;;11.85;52.89;99986.22;5032971;28;20396;-79
2023/01/02 18:20:09;;;;;;;;;;;;;;;11.82;52.75;99981.16;5032242;28;20456;-87
2023/01/02 18:22:34;;;;;;;;;;;;;;;11.79;52.69;99983.97;5001408;28;19928;-79
2023/01/02 18:24:59;;;;;;;;;;;;;;;11.74;52.33;99979.03;4996599;28;19917;-80
2023/01/02 18:27:26;;;;;;;;;;;;;;;11.74;52.36;99978.19;5008451;28;20037;-83
2023/01/02 18:29:57;;;;;;;;;;;;;;;11.69;52.32;99973.25;5010381;28;19928;-82
2023/01/02 18:32:26;;;;;;;;;;;;;;;11.67;52.48;99972.50;5013618;28;19913;-79
2023/01/02 18:34:52;;;;;;;;;;;;;;;11.66;52.34;99972.59;4996642;28;19921;-80
2023/01/02 18:37:19;;;;;;;;;;;;;;;11.65;52.48;99973.53;5013060;28;19925;-77
2023/01/02 18:39:44;;;;;;;;;;;;;;;11.63;52.38;99971.00;5032080;28;19929;-75
2023/01/02 18:42:10;;;;;;;;;;;;;;;11.61;52.09;99970.25;5029809;28;19932;-73
2023/01/02 18:44:35;;;;;;;;;;;;;;;11.59;52.18;99974.72;5012866;28;19913;-82
2023/01/02 18:47:21;;;;;;;;;;;;;;;11.59;52.16;99977.34;5019861;28;19917;-81
2023/01/02 18:49:46;;;;;;;;;;;;;;;11.55;52.11;99973.25;5003589;28;20307;-83
2023/01/02 18:52:11;;;;;;;;;;;;;;;11.54;52.11;99974.16;5009036;28;19921;-82
2023/01/02 18:54:40;;;;;;;;;;;;;;;11.52;52.03;99978.66;5009895;28;19917;-82
2023/01/02 18:57:16;;;;;;;;;;;;;;;11.50;52.31;99980.53;4993574;28;19980;-77
2023/01/02 18:59:41;;;;;;;;;;;;;;;11.57;55.91;99974.84;5014051;28;19921;-80
2023/01/02 19:02:22;;;;;;;;;;;;;;;11.56;55.57;99978.38;5029207;28;19990;-79
2023/01/02 19:04:47;;;;;;;;;;;;;;;11.53;55.22;99972.50;5027059;28;20498;-77
2023/01/02 19:07:21;;;;;;;;;;;;;;;11.49;54.72;99974.44;5021072;28;19923;-78
2023/01/02 19:09:46;;;;;;;;;;;;;;;11.45;54.57;99975.59;5013086;28;19925;-78
2023/01/02 19:14:56;;;;;;;;;;;;;;;11.37;54.34;99975.22;5050521;28;19924;-78
2023/01/02 19:17:25;;;;;;;;;;;;;;;11.35;54.37;99975.28;5052752;28;20302;-79
2023/01/02 19:19:50;;;;;;;;;;;;;;;11.34;54.31;99980.63;5052730;28;19920;-79
2023/01/02 19:22:16;;;;;;;;;;;;;;;11.30;54.51;99976.50;5053458;28;19928;-86
2023/01/02 19:24:41;;;;;;;;;;;;;;;11.28;54.35;99973.97;5035770;28;19991;-80
2023/01/02 19:27:27;;;;;;;;;;;;;;;11.26;54.14;99969.75;5035266;28;20400;-78
2023/01/02 19:29:52;;;;;;;;;;;;;;;11.22;54.45;99966.47;5013109;28;20373;-81
2023/01/02 19:32:18;;;;;;;;;;;;;;;11.19;54.44;99967.50;5013078;28;20012;-77
2023/01/02 19:34:47;;;;;;;;;;;;;;;11.17;54.37;99964.16;5014572;28;19921;-77
2023/01/02 19:37:12;;;;;;;;;;;;;;;11.15;54.23;99966.00;4996978;28;19924;-77
2023/01/02 19:39:42;;;;;;;;;;;;;;;11.15;54.21;99962.56;5012715;28;20342;-77
2023/01/02 19:42:20;;;;;;;;;;;;;;;11.12;54.22;99958.34;4997085;28;19918;-77
2023/01/02 19:44:46;;;;;;;;;;;;;;;11.11;54.35;99961.88;5014397;28;19913;-75
2023/01/02 19:47:11;;;;;;;;;;;;;;;11.11;54.19;99959.28;5012755;28;19925;-77
2023/01/02 19:49:37;;;;;;;;;;;;;;;11.10;54.31;99961.97;5012936;28;20019;-77
2023/01/02 19:52:02;;;;;;;;;;;;;;;11.08;54.44;99959.44;5013134;28;19917;-78
2023/01/02 19:54:27;;;;;;;;;;;;;;;11.07;54.42;99963.03;4996724;28;19914;-77
2023/01/02 19:56:53;;;;;;;;;;;;;;;11.05;54.43;99957.03;4996093;28;19917;-78
2023/01/02 19:59:18;;;;;;;;;;;;;;;11.04;54.60;99960.59;5015130;28;19918;-76
2023/01/02 20:01:43;;;;;;;;;;;;;;;11.04;54.42;99956.19;5031201;28;19921;-75
2023/01/02 20:04:09;;;;;;;;;;;;;;;11.04;54.53;99957.97;5016386;28;19939;-78
2023/01/02 20:06:35;;;;;;;;;;;;;;;11.03;54.35;99958.88;5033387;28;19917;-78
2023/01/02 20:09:00;;;;;;;;;;;;;;;11.04;54.54;99957.97;5016132;28;20000;-78
2023/01/02 20:14:11;;;;;;;;;;;;;;;11.01;54.44;99961.59;4972812;28;19918;-76
2023/01/02 20:16:36;;;;;;;;;;;;;;;11.02;54.31;99965.91;4955499;28;20469;-79
2023/01/02 20:19:02;;;;;;;;;;;;;;;11.04;54.26;99960.59;4956446;28;20014;-77
2023/01/02 20:21:28;;;;;;;;;;;;;;;11.04;54.20;99960.59;4956179;28;19969;-77
2023/01/02 20:23:53;;;;;;;;;;;;;;;11.01;54.33;99961.59;4956133;28;19918;-78
2023/01/02 20:26:19;;;;;;;;;;;;;;;11.02;54.06;99951.97;4956175;28;20314;-78
2023/01/02 20:28:44;;;;;;;;;;;;;;;10.99;54.16;99960.00;4955866;28;19959;-77
2023/01/02 20:31:09;;;;;;;;;;;;;;;11.01;54.04;99953.75;4972322;28;20162;-78
2023/01/02 20:33:35;;;;;;;;;;;;;;;11.01;53.81;99950.31;4975361;28;19918;-78
2023/01/02 20:36:00;;;;;;;;;;;;;;;11.01;53.76;99942.47;4975392;28;19925;-78
2023/01/02 20:38:26;;;;;;;;;;;;;;;11.03;53.86;99945.81;4974515;28;19945;-78
2023/01/02 20:40:52;;;;;;;;;;;;;;;11.01;53.81;99938.06;4975058;28;20077;-77
2023/01/02 20:43:17;;;;;;;;;;;;;;;11.02;53.71;99947.59;4991405;28;20005;-78
2023/01/02 20:45:42;;;;;;;;;;;;;;;11.02;53.64;99942.38;4971084;28;20124;-78
2023/01/02 20:48:08;;;;;;;;;;;;;;;11.01;53.74;99945.91;4971925;28;19976;-79
2023/01/02 20:50:33;;;;;;;;;;;;;;;11.00;53.49;99940.78;4969015;28;20399;-78
2023/01/02 20:52:59;;;;;;;;;;;;;;;10.98;53.57;99938.25;5031577;28;19917;-79
2023/01/02 20:55:24;;;;;;;;;;;;;;;10.97;53.67;99944.41;5031305;28;20347;-79
2023/01/02 20:57:49;;;;;;;;;;;;;;;10.96;53.51;99932.28;5030988;28;20004;-78
2023/01/02 21:00:15;;;;;;;;;;;;;;;10.95;53.39;99938.44;5027193;28;19921;-78
2023/01/02 21:02:40;;;;;;;;;;;;;;;10.95;53.32;99935.81;5013434;28;19922;-79
2023/01/02 21:05:06;;;;;;;;;;;;;;;10.94;53.48;99939.38;5026490;28;19928;-78
2023/01/02 21:07:31;;;;;;;;;;;;;;;10.95;53.26;99940.22;5026714;28;19924;-78
2023/01/02 21:09:57;;;;;;;;;;;;;;;10.93;53.48;99932.47;5046338;28;19921;-76
2023/01/02 21:15:07;;;;;;;;;;;;;;;10.88;53.32;99929.28;5053259;28;19942;-78
2023/01/02 21:17:32;;;;;;;;;;;;;;;10.85;53.11;99934.69;5035824;28;20376;-79
2023/01/02 21:19:57;;;;;;;;;;;;;;;10.82;53.22;99932.25;5017700;28;19917;-78
2023/01/02 21:22:23;;;;;;;;;;;;;;;10.77;53.04;99929.03;5034060;28;19917;-78
2023/01/02 21:24:48;;;;;;;;;;;;;;;10.74;52.97;99932.69;5015605;28;19917;-77
2023/01/02 21:27:13;;;;;;;;;;;;;;;10.72;53.10;99933.69;5032688;28;19921;-78
2023/01/02 21:29:39;;;;;;;;;;;;;;;10.68;53.02;99933.88;5015875;28;20086;-78
2023/01/02 21:32:04;;;;;;;;;;;;;;;10.66;52.99;99932.31;5032618;28;19917;-79
2023/01/02 21:34:30;;;;;;;;;;;;;;;10.63;53.17;99935.09;5032039;28;19917;-80
2023/01/02 21:36:55;;;;;;;;;;;;;;;10.60;53.11;99928.25;5031435;28;20419;-78
2023/01/02 21:39:20;;;;;;;;;;;;;;;10.58;53.27;99930.13;5031985;28;19925;-77
2023/01/02 21:44:49;;;;;;;;;;;;;;;10.53;53.09;99926.09;4972180;28;19926;-76
2023/01/02 21:47:15;;;;;;;;;;;;;;;10.49;53.12;99923.66;4972493;28;19918;-78
2023/01/02 21:49:40;;;;;;;;;;;;;;;10.48;53.08;99931.56;4972583;28;19922;-78
2023/01/02 21:52:05;;;;;;;;;;;;;;;10.45;53.09;99921.31;4972379;28;20341;-76
2023/01/02 21:54:31;;;;;;;;;;;;;;;10.42;53.23;99919.72;4971940;28;20397;-78
2023/01/02 21:56:56;;;;;;;;;;;;;;;10.39;53.22;99919.03;4971840;28;19972;-78
2023/01/02 21:59:24;;;;;;;;;;;;;;;10.36;53.12;99921.81;4971349;28;19961;-77
2023/01/02 22:01:50;;;;;;;;;;;;;;;10.33;53.12;99922.84;4971573;28;19925;-77
2023/01/02 22:04:15;;;;;;;;;;;;;;;10.34;53.43;99919.28;4972033;28;20016;-78
2023/01/02 22:06:40;;;;;;;;;;;;;;;10.31;53.21;99922.91;4971876;28;20496;-77
2023/01/02 22:09:06;;;;;;;;;;;;;;;10.30;53.22;99918.59;4971758;28;19922;-78
2023/01/02 22:14:14;;;;;;;;;;;;;;;10.25;53.24;99911.97;4971955;28;19949;-76
2023/01/02 22:16:40;;;;;;;;;;;;;;;10.23;53.30;99905.97;5030286;28;19917;-77
2023/01/02 22:19:05;;;;;;;;;;;;;;;10.21;53.21;99902.63;5031537;28;19925;-78
2023/01/02 22:21:30;;;;;;;;;;;;;;;10.20;53.35;99907.00;5015346;28;20304;-78
2023/01/02 22:23:56;;;;;;;;;;;;;;;10.18;53.68;99895.78;5032251;28;20020;-78
2023/01/02 22:26:21;;;;;;;;;;;;;;;10.16;53.27;99900.28;5031835;28;19923;-78
2023/01/02 22:28:47;;;;;;;;;;;;;;;10.17;53.40;99901.09;5031204;28;20385;-79
2023/01/02 22:31:12;;;;;;;;;;;;;;;10.14;53.45;99899.53;5031146;28;20450;-77
2023/01/02 22:33:37;;;;;;;;;;;;;;;10.15;53.43;99901.19;5031292;28;19917;-77
2023/01/02 22:36:02;;;;;;;;;;;;;;;10.13;53.36;99901.28;5030940;28;19917;-77
2023/01/02 22:38:28;;;;;;;;;;;;;;;10.12;53.28;99897.00;5033853;28;19933;-77
2023/01/02 22:40:53;;;;;;;;;;;;;;;10.13;53.27;99890.84;5034629;28;19924;-77
2023/01/02 22:43:19;;;;;;;;;;;;;;;10.12;53.17;99893.53;5018038;28;19917;-78
2023/01/02 22:45:45;;;;;;;;;;;;;;;10.12;53.16;99896.13;5034143;28;19971;-77
2023/01/02 22:48:37;;;;;;;;;;;;;;;10.11;53.02;99884.03;5036833;28;19982;-78
2023/01/02 22:51:04;;;;;;;;;;;;;;;10.09;53.20;99886.72;5053415;28;19917;-79
2023/01/02 22:53:31;;;;;;;;;;;;;;;10.08;53.21;99879.00;5021961;28;19917;-78
2023/01/02 22:55:56;;;;;;;;;;;;;;;10.08;53.21;99879.00;5022061;28;19921;-78
2023/01/02 22:58:22;;;;;;;;;;;;;;;10.07;53.10;99878.16;5038226;28;19924;-77
2023/01/02 23:00:48;;;;;;;;;;;;;;;10.06;52.92;99867.81;5021425;28;19916;-79
2023/01/02 23:03:14;;;;;;;;;;;;;;;10.04;53.04;99865.28;5038841;28;19956;-78
2023/01/02 23:05:39;;;;;;;;;;;;;;;10.02;52.91;99867.13;5021930;28;19952;-78
2023/01/02 23:08:04;;;;;;;;;;;;;;;10.00;52.94;99858.53;5038267;28;19967;-77
2023/01/02 23:10:30;;;;;;;;;;;;;;;10.00;52.89;99855.94;5038520;28;19917;-77
2023/01/02 23:12:55;;;;;;;;;;;;;;;9.99;52.65;99846.41;5021531;28;20295;-77
2023/01/02 23:15:20;;;;;;;;;;;;;;;9.99;52.76;99848.19;5038768;28;20376;-78
2023/01/02 23:20:29;;;;;;;;;;;;;;;9.93;52.76;99841.53;5056024;28;20370;-78
2023/01/02 23:22:55;;;;;;;;;;;;;;;9.90;52.71;99839.97;5038186;28;19917;-77
2023/01/02 23:25:20;;;;;;;;;;;;;;;9.86;52.85;99830.63;5021478;28;19974;-78
2023/01/02 23:27:45;;;;;;;;;;;;;;;9.86;52.49;99840.22;5037850;28;19974;-79
2023/01/02 23:30:11;;;;;;;;;;;;;;;9.83;52.63;99830.78;5021568;28;19916;-77
2023/01/02 23:32:36;;;;;;;;;;;;;;;9.80;52.61;99830.97;5055073;28;19943;-77
2023/01/02 23:35:02;;;;;;;;;;;;;;;9.78;52.56;99832.81;5037962;28;20003;-78
2023/01/02 23:37:27;;;;;;;;;;;;;;;9.76;52.44;99821.66;5055735;28;19916;-78
2023/01/02 23:39:52;;;;;;;;;;;;;;;9.74;52.55;99821.72;5055756;28;19924;-76
2023/01/02 23:42:17;;;;;;;;;;;;;;;9.75;52.51;99825.16;5037785;28;19976;-76
2023/01/02 23:44:43;;;;;;;;;;;;;;;9.75;52.44;99825.16;5020985;28;19917;-77
2023/01/02 23:47:08;;;;;;;;;;;;;;;9.74;52.43;99820.88;5037624;28;20005;-78
2023/01/02 23:49:34;;;;;;;;;;;;;;;9.72;52.53;99822.72;5055677;28;19923;-77
2023/01/02 23:51:59;;;;;;;;;;;;;;;9.72;52.31;99820.94;5037704;28;20338;-77
2023/01/02 23:54:24;;;;;;;;;;;;;;;9.72;52.28;99825.34;5021088;28;19975;-78
2023/01/02 23:56:49;;;;;;;;;;;;;;;9.71;52.21;99832.31;5037463;28;19963;-79
2023/01/02 23:59:16;;;;;;;;;;;;;;;9.69;52.17;99823.72;5036562;28;19924;-79
